createdAt,value
2022-11-12T00:04:39.048Z,45.10
2022-11-12T00:09:22.496Z,40.10
2022-11-12T00:14:06.164Z,44.63
2022-11-12T00:18:51.152Z,51.47
2022-11-12T00:23:34.642Z,50.03
2022-11-12T00:28:38.701Z,46.07
2022-11-12T00:33:42.988Z,45.63
2022-11-12T00:38:47.981Z,52.13
2022-11-12T00:43:51.490Z,54.10
2022-11-12T00:48:55.100Z,51.13
2022-11-12T00:54:00.106Z,45.90
2022-11-12T00:58:44.293Z,44.93
2022-11-12T01:03:29.890Z,46.57
2022-11-12T01:08:13.711Z,42.93
2022-11-12T01:12:58.525Z,42.90
2022-11-12T01:17:41.986Z,51.93
2022-11-12T01:22:25.979Z,43.73
2022-11-12T01:27:09.493Z,48.23
2022-11-12T01:31:54.433Z,53.47
2022-11-12T01:36:40.854Z,50.70
2022-11-12T01:41:26.756Z,55.90
2022-11-12T01:46:18.473Z,60.00
2022-11-12T01:51:06.463Z,59.53
2022-11-12T01:55:50.501Z,64.43
2022-11-12T02:00:33.956Z,65.63
2022-11-12T02:05:18.961Z,63.60
2022-11-12T02:10:05.732Z,56.83
2022-11-12T02:14:49.220Z,59.13
2022-11-12T02:19:32.658Z,57.77
2022-11-12T02:24:38.143Z,53.00
2022-11-12T02:29:21.704Z,61.47
2022-11-12T02:34:05.430Z,57.53
2022-11-12T02:38:48.850Z,49.10
2022-11-12T02:43:33.664Z,61.00
2022-11-12T02:48:19.344Z,57.33
2022-11-12T02:53:02.896Z,52.80
2022-11-12T02:57:46.322Z,46.10
2022-11-12T03:02:31.166Z,47.57
2022-11-12T03:07:14.878Z,42.03
2022-11-12T03:11:58.402Z,46.23
2022-11-12T03:16:41.832Z,50.83
2022-11-12T03:21:26.711Z,51.73
2022-11-12T03:26:10.191Z,57.00
2022-11-12T03:30:57.845Z,51.70
2022-11-12T03:35:41.635Z,55.00
2022-11-12T03:40:27.108Z,54.70
2022-11-12T03:45:10.722Z,46.97
2022-11-12T03:49:54.124Z,50.33
2022-11-12T03:54:37.547Z,43.23
2022-11-12T03:59:22.340Z,44.97
2022-11-12T04:04:05.971Z,41.90
2022-11-12T04:08:48.607Z,40.63
2022-11-12T04:13:32.118Z,32.63
2022-11-12T04:18:33.860Z,35.17
2022-11-12T04:23:17.260Z,39.00
2022-11-12T04:28:00.676Z,52.17
2022-11-12T04:32:49.547Z,50.60
2022-11-12T04:37:45.462Z,59.10
2022-11-12T04:42:46.069Z,47.13
2022-11-12T04:47:31.087Z,44.77
2022-11-12T04:52:14.590Z,42.70
2022-11-12T04:56:59.670Z,44.73
2022-11-12T05:01:43.314Z,48.47
2022-11-12T05:06:44.299Z,43.60
2022-11-12T05:11:27.880Z,51.27
2022-11-12T05:16:12.739Z,49.67
2022-11-12T05:20:56.114Z,49.93
2022-11-12T05:25:39.665Z,51.47
2022-11-12T05:30:23.184Z,40.77
2022-11-12T05:35:08.967Z,45.53
2022-11-12T05:39:52.593Z,43.87
2022-11-12T05:44:36.358Z,50.23
2022-11-12T05:49:19.952Z,49.67
2022-11-12T05:54:05.184Z,44.13
2022-11-12T05:58:48.670Z,48.03
2022-11-12T06:03:32.472Z,47.40
2022-11-12T06:08:15.991Z,44.07
2022-11-12T06:13:01.053Z,51.17
2022-11-12T06:17:44.645Z,41.77
2022-11-12T06:22:28.101Z,45.67
2022-11-12T06:27:11.532Z,52.23
2022-11-12T06:31:56.429Z,45.90
2022-11-12T06:36:40.559Z,41.83
2022-11-12T06:41:24.092Z,39.63
2022-11-12T06:46:09.788Z,46.07
2022-11-12T06:50:54.616Z,42.53
2022-11-12T06:55:38.697Z,45.37
2022-11-12T07:00:22.411Z,43.93
2022-11-12T07:05:06.266Z,47.83
2022-11-12T07:09:51.208Z,45.00
2022-11-12T07:14:34.623Z,44.40
2022-11-12T07:19:18.042Z,45.67
2022-11-12T07:24:01.489Z,38.00
2022-11-12T07:28:46.808Z,34.80
2022-11-12T07:33:30.823Z,36.27
2022-11-12T07:38:14.319Z,36.70
2022-11-12T07:43:00.223Z,31.60
2022-11-12T07:47:45.055Z,30.03
2022-11-12T07:52:28.487Z,26.80
2022-11-12T07:57:12.113Z,26.90
2022-11-12T08:01:55.704Z,26.80
2022-11-12T08:06:40.700Z,26.90
2022-11-12T08:11:24.931Z,31.57
2022-11-12T08:16:09.291Z,24.93
2022-11-12T08:20:53.099Z,26.37
2022-11-12T08:25:38.211Z,22.93
2022-11-12T08:30:21.672Z,23.90
2022-11-12T08:35:05.528Z,23.90
2022-11-12T08:39:48.988Z,21.53
2022-11-12T08:44:33.949Z,24.73
2022-11-12T08:49:17.540Z,20.10
2022-11-12T08:54:01.270Z,21.40
2022-11-12T08:58:44.816Z,28.53
2022-11-12T09:03:29.870Z,23.00
2022-11-12T09:08:15.683Z,25.40
2022-11-12T09:12:59.350Z,27.27
2022-11-12T09:17:42.948Z,27.97
2022-11-12T09:22:27.923Z,25.17
2022-11-12T09:27:11.423Z,29.20
2022-11-12T09:31:55.487Z,30.63
2022-11-12T09:36:40.240Z,30.73
2022-11-12T09:41:34.736Z,31.90
2022-11-12T09:46:29.486Z,27.33
2022-11-12T09:51:18.516Z,23.20
2022-11-12T09:56:06.733Z,25.60
2022-11-12T10:00:56.772Z,26.70
2022-11-12T10:05:48.956Z,29.07
2022-11-12T10:10:41.022Z,27.17
2022-11-12T10:15:56.566Z,29.23
2022-11-12T10:20:49.600Z,28.77
2022-11-12T10:25:34.213Z,34.37
2022-11-12T10:30:19.854Z,31.73
2022-11-12T10:35:03.329Z,34.23
2022-11-12T10:39:48.431Z,37.40
2022-11-12T10:44:32.003Z,28.50
2022-11-12T10:49:25.378Z,31.87
2022-11-12T10:54:29.234Z,28.83
2022-11-12T10:59:17.595Z,30.67
2022-11-12T11:04:01.113Z,35.93
2022-11-12T11:08:46.904Z,33.53
2022-11-12T11:13:30.347Z,30.10
2022-11-12T11:18:15.782Z,27.40
2022-11-12T11:23:04.719Z,31.57
2022-11-12T11:28:00.986Z,28.87
2022-11-12T11:33:04.884Z,29.73
2022-11-12T11:38:01.766Z,28.53
2022-11-12T11:42:58.284Z,28.13
2022-11-12T11:48:01.329Z,27.97
2022-11-12T11:52:56.164Z,33.03
2022-11-12T11:57:46.291Z,25.67
2022-11-12T12:02:47.734Z,25.57
2022-11-12T12:07:39.007Z,23.17
2022-11-12T12:12:43.573Z,24.63
2022-11-12T12:17:38.507Z,26.77
2022-11-12T12:22:31.581Z,23.53
2022-11-12T12:27:17.760Z,21.87
2022-11-12T12:32:12.035Z,22.27
2022-11-12T12:37:02.520Z,20.80
2022-11-12T12:41:54.122Z,22.53
2022-11-12T12:46:43.879Z,24.83
2022-11-12T12:51:31.063Z,22.27
2022-11-12T12:56:49.367Z,22.70
2022-11-12T13:01:35.524Z,28.63
2022-11-12T13:06:27.614Z,24.87
2022-11-12T13:11:52.783Z,24.90
2022-11-12T13:16:58.390Z,23.83
2022-11-12T13:21:45.286Z,24.97
2022-11-12T13:26:53.894Z,22.57
2022-11-12T13:31:37.688Z,25.73
2022-11-12T13:36:31.280Z,24.53
2022-11-12T13:41:19.652Z,24.03
2022-11-12T13:46:26.566Z,23.70
2022-11-12T13:51:16.626Z,25.73
2022-11-12T13:56:00.719Z,23.37
2022-11-12T14:00:53.443Z,23.10
2022-11-12T14:05:39.567Z,22.10
2022-11-12T14:10:34.370Z,25.47
2022-11-12T14:15:33.239Z,23.80
2022-11-12T14:20:29.231Z,22.27
2022-11-12T14:25:19.512Z,22.77
2022-11-12T14:30:12.531Z,24.37
2022-11-12T14:34:56.070Z,25.93
2022-11-12T14:39:43.285Z,29.13
2022-11-12T14:44:34.019Z,29.80
2022-11-12T14:49:22.921Z,26.47
2022-11-12T14:54:08.750Z,32.67
2022-11-12T14:58:53.770Z,28.13
2022-11-12T15:03:38.742Z,27.60
2022-11-12T15:08:34.856Z,27.80
2022-11-12T15:13:20.792Z,29.10
2022-11-12T15:18:07.398Z,29.83
2022-11-12T15:22:54.141Z,28.23
2022-11-12T15:27:40.229Z,27.57
2022-11-12T15:32:35.365Z,27.23
2022-11-12T15:37:26.827Z,28.13
2022-11-12T15:42:18.724Z,26.43
2022-11-12T15:47:03.155Z,27.47
2022-11-12T15:51:46.877Z,30.50
2022-11-12T15:56:31.099Z,29.07
2022-11-12T16:01:16.105Z,32.40
2022-11-12T16:06:05.547Z,26.20
2022-11-12T16:10:52.312Z,33.10
2022-11-12T16:15:36.283Z,29.37
2022-11-12T16:20:24.033Z,28.47
2022-11-12T16:25:08.390Z,26.90
2022-11-12T16:29:52.120Z,26.23
2022-11-12T16:34:35.612Z,26.87
2022-11-12T16:39:20.709Z,28.77
2022-11-12T16:44:04.499Z,33.43
2022-11-12T16:48:48.053Z,32.80
2022-11-12T16:53:32.004Z,30.13
2022-11-12T16:58:17.364Z,29.97
2022-11-12T17:03:01.218Z,31.33
2022-11-12T17:07:45.076Z,28.87
2022-11-12T17:12:29.372Z,30.10
2022-11-12T17:17:15.216Z,32.23
2022-11-12T17:22:00.221Z,31.10
2022-11-12T17:26:44.865Z,34.77
2022-11-12T17:31:29.062Z,30.73
2022-11-12T17:36:17.693Z,35.10
2022-11-12T17:41:01.340Z,31.57
2022-11-12T17:45:51.144Z,29.43
2022-11-12T17:50:35.250Z,34.87
2022-11-12T17:55:21.429Z,32.87
2022-11-12T18:00:06.241Z,34.23
2022-11-12T18:04:52.862Z,33.93
2022-11-12T18:09:37.546Z,30.37
2022-11-12T18:14:23.802Z,34.73
2022-11-12T18:19:11.168Z,31.57
2022-11-12T18:23:55.220Z,36.13
2022-11-12T18:28:39.863Z,34.27
2022-11-12T18:33:25.819Z,36.83
2022-11-12T18:38:10.695Z,33.90
2022-11-12T18:42:56.002Z,37.83
2022-11-12T18:47:40.591Z,37.03
2022-11-12T18:52:26.999Z,37.80
2022-11-12T18:57:12.426Z,38.83
2022-11-12T19:01:57.460Z,37.63
2022-11-12T19:06:44.742Z,38.43
2022-11-12T19:11:30.687Z,33.50
2022-11-12T19:16:17.479Z,36.17
2022-11-12T19:21:07.138Z,40.60
2022-11-12T19:25:51.329Z,36.07
2022-11-12T19:30:36.894Z,40.83
2022-11-12T19:35:21.655Z,36.97
2022-11-12T19:40:06.497Z,32.10
2022-11-12T19:44:51.346Z,31.33
2022-11-12T19:49:36.520Z,33.13
2022-11-12T19:54:20.253Z,30.77
2022-11-12T19:59:06.440Z,36.17
2022-11-12T20:03:50.386Z,37.17
2022-11-12T20:08:36.750Z,35.73
2022-11-12T20:13:20.791Z,33.73
2022-11-12T20:18:04.847Z,39.20
2022-11-12T20:22:48.817Z,48.80
2022-11-12T20:27:34.910Z,34.77
2022-11-12T20:32:19.478Z,39.50
2022-11-12T20:43:17.495Z,38.83
2022-11-12T20:48:02.357Z,37.27
2022-11-12T20:52:46.313Z,35.50
2022-11-12T20:57:30.647Z,37.93
2022-11-12T21:02:16.023Z,39.47
2022-11-12T21:07:05.114Z,37.27
2022-11-12T21:11:50.384Z,39.83
2022-11-12T21:16:34.859Z,39.07
2022-11-12T21:21:21.593Z,37.57
2022-11-12T21:26:07.667Z,33.90
2022-11-12T21:30:53.308Z,36.60
2022-11-12T21:35:37.606Z,41.30
2022-11-12T21:40:25.284Z,40.30
2022-11-12T21:45:09.832Z,42.63
2022-11-12T21:49:54.505Z,42.30
2022-11-12T21:54:38.052Z,54.60
2022-11-12T21:59:23.092Z,44.50
2022-11-12T22:04:08.467Z,43.27
2022-11-12T22:08:53.604Z,42.90
2022-11-12T22:13:37.452Z,42.77
2022-11-12T22:18:22.457Z,42.17
2022-11-12T22:23:06.357Z,42.80
2022-11-12T22:27:51.077Z,40.67
2022-11-12T22:32:34.543Z,42.53
2022-11-12T22:37:19.440Z,43.20
2022-11-12T22:42:03.025Z,42.67
2022-11-12T22:46:46.587Z,42.20
2022-11-12T22:51:32.374Z,39.67
2022-11-12T22:56:18.267Z,39.67
